sensor_id;sensor_type;location;lat;lon;timestamp;pressure;altitude;pressure_sealevel;temperature;humidity
40372;BME280;28564;53.346;-6.554;2023-03-21T00:00:42;99581.45;;;14.03;52.69
40372;BME280;28564;53.346;-6.554;2023-03-21T00:03:10;99580.92;;;14.35;52.49
40372;BME280;28564;53.346;-6.554;2023-03-21T00:05:39;99570.64;;;14.38;52.03
40372;BME280;28564;53.346;-6.554;2023-03-21T00:08:07;99568.58;;;14.32;52.00
40372;BME280;28564;53.346;-6.554;2023-03-21T00:10:35;99565.21;;;14.27;52.28
40372;BME280;28564;53.346;-6.554;2023-03-21T00:13:02;99566.64;;;14.33;51.86
40372;BME280;28564;53.346;-6.554;2023-03-21T00:15:29;99568.62;;;14.31;51.77
40372;BME280;28564;53.346;-6.554;2023-03-21T00:17:57;99560.42;;;14.27;51.96
40372;BME280;28564;53.346;-6.554;2023-03-21T00:20:24;99560.22;;;14.24;52.12
40372;BME280;28564;53.346;-6.554;2023-03-21T00:22:51;99563.76;;;14.21;52.28
40372;BME280;28564;53.346;-6.554;2023-03-21T00:25:18;99561.71;;;14.25;52.30
40372;BME280;28564;53.346;-6.554;2023-03-21T00:27:46;99561.35;;;14.25;52.44
40372;BME280;28564;53.346;-6.554;2023-03-21T00:30:14;99564.51;;;14.03;52.50
40372;BME280;28564;53.346;-6.554;2023-03-21T00:32:42;99556.01;;;14.33;52.24
40372;BME280;28564;53.346;-6.554;2023-03-21T00:35:09;99556.62;;;14.30;52.37
40372;BME280;28564;53.346;-6.554;2023-03-21T00:37:36;99558.73;;;14.32;52.58
40372;BME280;28564;53.346;-6.554;2023-03-21T00:40:04;99549.53;;;14.35;52.37
40372;BME280;28564;53.346;-6.554;2023-03-21T00:42:32;99545.79;;;14.39;52.18
40372;BME280;28564;53.346;-6.554;2023-03-21T00:44:59;99542.85;;;14.33;52.33
40372;BME280;28564;53.346;-6.554;2023-03-21T00:47:26;99540.55;;;14.31;52.31
40372;BME280;28564;53.346;-6.554;2023-03-21T00:49:53;99532.57;;;14.25;52.52
40372;BME280;28564;53.346;-6.554;2023-03-21T00:52:21;99528.85;;;14.31;52.48
40372;BME280;28564;53.346;-6.554;2023-03-21T00:54:48;99525.55;;;14.27;52.48
40372;BME280;28564;53.346;-6.554;2023-03-21T00:57:15;99521.55;;;14.23;52.69
40372;BME280;28564;53.346;-6.554;2023-03-21T00:59:43;99517.52;;;14.24;52.73
40372;BME280;28564;53.346;-6.554;2023-03-21T01:02:10;99512.41;;;14.24;52.73
40372;BME280;28564;53.346;-6.554;2023-03-21T01:04:37;99506.77;;;14.25;52.75
40372;BME280;28564;53.346;-6.554;2023-03-21T01:07:04;99504.15;;;13.95;52.72
40372;BME280;28564;53.346;-6.554;2023-03-21T01:09:31;99501.42;;;14.23;52.84
40372;BME280;28564;53.346;-6.554;2023-03-21T01:11:59;99497.12;;;14.24;52.86
40372;BME280;28564;53.346;-6.554;2023-03-21T01:14:26;99494.07;;;13.77;52.83
40372;BME280;28564;53.346;-6.554;2023-03-21T01:16:53;99492.22;;;14.00;52.82
40372;BME280;28564;53.346;-6.554;2023-03-21T01:19:23;99487.59;;;14.30;52.64
40372;BME280;28564;53.346;-6.554;2023-03-21T01:21:50;99476.77;;;14.24;52.86
40372;BME280;28564;53.346;-6.554;2023-03-21T01:24:17;99473.41;;;14.01;52.88
40372;BME280;28564;53.346;-6.554;2023-03-21T01:26:44;99467.19;;;14.28;52.59
40372;BME280;28564;53.346;-6.554;2023-03-21T01:29:12;99466.15;;;14.23;52.82
40372;BME280;28564;53.346;-6.554;2023-03-21T01:31:39;99455.58;;;13.93;52.78
40372;BME280;28564;53.346;-6.554;2023-03-21T01:34:06;99452.19;;;14.15;52.72
40372;BME280;28564;53.346;-6.554;2023-03-21T01:36:33;99448.93;;;14.10;52.64
40372;BME280;28564;53.346;-6.554;2023-03-21T01:39:00;99448.45;;;14.01;52.86
40372;BME280;28564;53.346;-6.554;2023-03-21T01:41:29;99448.22;;;13.97;53.03
40372;BME280;28564;53.346;-6.554;2023-03-21T01:43:57;99444.98;;;14.17;53.24
40372;BME280;28564;53.346;-6.554;2023-03-21T01:46:34;99442.92;;;13.98;53.27
40372;BME280;28564;53.346;-6.554;2023-03-21T01:49:07;99438.00;;;14.04;53.03
40372;BME280;28564;53.346;-6.554;2023-03-21T01:51:39;99436.32;;;14.50;53.02
40372;BME280;28564;53.346;-6.554;2023-03-21T01:54:13;99429.95;;;14.09;52.84
40372;BME280;28564;53.346;-6.554;2023-03-21T01:56:43;99421.41;;;14.07;52.65
40372;BME280;28564;53.346;-6.554;2023-03-21T01:59:15;99404.69;;;13.99;52.46
40372;BME280;28564;53.346;-6.554;2023-03-21T02:01:44;99396.66;;;13.90;52.34
40372;BME280;28564;53.346;-6.554;2023-03-21T02:04:11;99391.06;;;14.01;52.34
40372;BME280;28564;53.346;-6.554;2023-03-21T02:06:45;99390.44;;;13.67;52.51
40372;BME280;28564;53.346;-6.554;2023-03-21T02:09:20;99387.93;;;14.02;52.71
40372;BME280;28564;53.346;-6.554;2023-03-21T02:11:49;99389.26;;;13.72;52.71
40372;BME280;28564;53.346;-6.554;2023-03-21T02:14:18;99387.32;;;13.63;52.78
40372;BME280;28564;53.346;-6.554;2023-03-21T02:16:51;99375.26;;;13.57;52.81
40372;BME280;28564;53.346;-6.554;2023-03-21T02:19:48;99367.45;;;13.69;52.91
40372;BME280;28564;53.346;-6.554;2023-03-21T02:22:37;99362.25;;;13.42;52.91
40372;BME280;28564;53.346;-6.554;2023-03-21T02:27:39;99362.75;;;13.66;53.21
40372;BME280;28564;53.346;-6.554;2023-03-21T02:31:24;99357.55;;;13.21;53.18
40372;BME280;28564;53.346;-6.554;2023-03-21T02:34:20;99358.59;;;13.26;53.53
40372;BME280;28564;53.346;-6.554;2023-03-21T02:36:59;99360.04;;;13.39;53.70
40372;BME280;28564;53.346;-6.554;2023-03-21T02:39:39;99353.50;;;13.50;53.51
40372;BME280;28564;53.346;-6.554;2023-03-21T02:42:14;99345.86;;;13.54;52.95
40372;BME280;28564;53.346;-6.554;2023-03-21T02:44:46;99339.48;;;13.50;52.66
40372;BME280;28564;53.346;-6.554;2023-03-21T02:47:21;99334.12;;;13.23;52.67
40372;BME280;28564;53.346;-6.554;2023-03-21T02:49:53;99325.82;;;13.36;52.60
40372;BME280;28564;53.346;-6.554;2023-03-21T02:52:24;99323.24;;;13.30;52.78
40372;BME280;28564;53.346;-6.554;2023-03-21T02:54:54;99316.99;;;13.47;52.82
40372;BME280;28564;53.346;-6.554;2023-03-21T02:57:22;99316.92;;;13.48;52.90
40372;BME280;28564;53.346;-6.554;2023-03-21T02:59:51;99306.90;;;13.25;53.11
40372;BME280;28564;53.346;-6.554;2023-03-21T03:02:24;99302.46;;;13.49;53.18
40372;BME280;28564;53.346;-6.554;2023-03-21T03:04:52;99296.74;;;13.08;52.79
40372;BME280;28564;53.346;-6.554;2023-03-21T03:07:30;99294.91;;;13.51;52.66
40372;BME280;28564;53.346;-6.554;2023-03-21T03:10:14;99294.27;;;13.45;52.75
40372;BME280;28564;53.346;-6.554;2023-03-21T03:12:55;99293.70;;;13.38;52.83
40372;BME280;28564;53.346;-6.554;2023-03-21T03:15:29;99291.37;;;13.37;53.09
40372;BME280;28564;53.346;-6.554;2023-03-21T03:18:09;99288.09;;;13.44;53.09
40372;BME280;28564;53.346;-6.554;2023-03-21T03:20:47;99281.52;;;13.46;52.80
40372;BME280;28564;53.346;-6.554;2023-03-21T03:23:25;99273.54;;;13.49;52.80
40372;BME280;28564;53.346;-6.554;2023-03-21T03:25:59;99273.09;;;13.50;52.91
40372;BME280;28564;53.346;-6.554;2023-03-21T03:28:32;99271.76;;;13.26;52.47
40372;BME280;28564;53.346;-6.554;2023-03-21T03:31:01;99272.86;;;13.31;52.48
40372;BME280;28564;53.346;-6.554;2023-03-21T03:33:29;99273.39;;;13.45;52.57
40372;BME280;28564;53.346;-6.554;2023-03-21T03:35:58;99270.60;;;13.39;52.82
40372;BME280;28564;53.346;-6.554;2023-03-21T03:38:26;99266.12;;;13.40;53.10
40372;BME280;28564;53.346;-6.554;2023-03-21T03:41:00;99261.65;;;13.43;53.28
40372;BME280;28564;53.346;-6.554;2023-03-21T03:43:32;99252.55;;;13.28;53.15
40372;BME280;28564;53.346;-6.554;2023-03-21T03:46:07;99250.21;;;13.54;52.86
40372;BME280;28564;53.346;-6.554;2023-03-21T03:48:42;99242.99;;;13.30;52.94
40372;BME280;28564;53.346;-6.554;2023-03-21T03:51:15;99239.53;;;13.29;53.09
40372;BME280;28564;53.346;-6.554;2023-03-21T03:53:50;99239.83;;;13.55;53.32
40372;BME280;28564;53.346;-6.554;2023-03-21T03:56:20;99231.51;;;13.37;53.29
40372;BME280;28564;53.346;-6.554;2023-03-21T03:58:48;99230.57;;;13.41;53.17
40372;BME280;28564;53.346;-6.554;2023-03-21T04:01:16;99229.93;;;13.65;53.23
40372;BME280;28564;53.346;-6.554;2023-03-21T04:03:45;99227.43;;;13.25;53.25
40372;BME280;28564;53.346;-6.554;2023-03-21T04:06:13;99226.57;;;13.29;53.16
40372;BME280;28564;53.346;-6.554;2023-03-21T04:08:41;99229.15;;;13.78;53.08
40372;BME280;28564;53.346;-6.554;2023-03-21T04:11:09;99224.98;;;13.81;53.11
40372;BME280;28564;53.346;-6.554;2023-03-21T04:13:37;99225.19;;;13.58;53.24
40372;BME280;28564;53.346;-6.554;2023-03-21T04:16:05;99216.33;;;13.26;53.61
40372;BME280;28564;53.346;-6.554;2023-03-21T04:18:32;99215.23;;;13.44;53.98
40372;BME280;28564;53.346;-6.554;2023-03-21T04:20:59;99210.95;;;13.44;54.00
40372;BME280;28564;53.346;-6.554;2023-03-21T04:23:26;99204.83;;;13.45;54.25
40372;BME280;28564;53.346;-6.554;2023-03-21T04:25:54;99199.70;;;13.48;54.17
40372;BME280;28564;53.346;-6.554;2023-03-21T04:28:21;99201.29;;;13.51;54.17
40372;BME280;28564;53.346;-6.554;2023-03-21T04:30:49;99207.16;;;13.57;54.13
40372;BME280;28564;53.346;-6.554;2023-03-21T04:33:16;99203.57;;;13.63;53.63
40372;BME280;28564;53.346;-6.554;2023-03-21T04:35:43;99202.85;;;13.29;53.85
40372;BME280;28564;53.346;-6.554;2023-03-21T04:38:10;99204.73;;;13.27;53.98
40372;BME280;28564;53.346;-6.554;2023-03-21T04:40:37;99199.22;;;13.70;53.97
40372;BME280;28564;53.346;-6.554;2023-03-21T04:43:04;99197.73;;;13.44;54.29
40372;BME280;28564;53.346;-6.554;2023-03-21T04:45:32;99194.46;;;13.45;54.40
40372;BME280;28564;53.346;-6.554;2023-03-21T04:47:59;99193.34;;;13.71;54.30
40372;BME280;28564;53.346;-6.554;2023-03-21T04:50:26;99196.80;;;13.73;54.10
40372;BME280;28564;53.346;-6.554;2023-03-21T04:52:53;99198.31;;;13.52;54.26
40372;BME280;28564;53.346;-6.554;2023-03-21T04:55:20;99197.94;;;13.78;54.30
40372;BME280;28564;53.346;-6.554;2023-03-21T04:57:48;99197.79;;;13.91;54.10
40372;BME280;28564;53.346;-6.554;2023-03-21T05:00:16;99191.20;;;13.76;53.76
40372;BME280;28564;53.346;-6.554;2023-03-21T05:02:44;99189.46;;;13.74;54.04
40372;BME280;28564;53.346;-6.554;2023-03-21T05:05:11;99184.26;;;13.55;54.00
40372;BME280;28564;53.346;-6.554;2023-03-21T05:07:40;99184.61;;;13.81;53.79
40372;BME280;28564;53.346;-6.554;2023-03-21T05:10:09;99183.45;;;13.60;53.71
40372;BME280;28564;53.346;-6.554;2023-03-21T05:12:37;99182.93;;;13.82;53.77
40372;BME280;28564;53.346;-6.554;2023-03-21T05:15:06;99180.40;;;13.64;53.76
40372;BME280;28564;53.346;-6.554;2023-03-21T05:17:33;99179.76;;;13.66;53.53
40372;BME280;28564;53.346;-6.554;2023-03-21T05:20:00;99178.44;;;13.63;53.54
40372;BME280;28564;53.346;-6.554;2023-03-21T05:22:28;99180.31;;;13.55;53.80
40372;BME280;28564;53.346;-6.554;2023-03-21T05:24:55;99178.06;;;13.74;53.97
40372;BME280;28564;53.346;-6.554;2023-03-21T05:27:22;99185.07;;;13.93;54.02
40372;BME280;28564;53.346;-6.554;2023-03-21T05:29:49;99189.31;;;13.88;54.29
40372;BME280;28564;53.346;-6.554;2023-03-21T05:32:16;99191.11;;;13.60;54.51
40372;BME280;28564;53.346;-6.554;2023-03-21T05:34:43;99193.00;;;13.55;54.60
40372;BME280;28564;53.346;-6.554;2023-03-21T05:37:11;99193.24;;;13.54;54.68
40372;BME280;28564;53.346;-6.554;2023-03-21T05:39:38;99193.29;;;13.54;54.66
40372;BME280;28564;53.346;-6.554;2023-03-21T05:42:05;99199.67;;;13.28;54.79
40372;BME280;28564;53.346;-6.554;2023-03-21T05:44:32;99203.20;;;13.51;54.84
40372;BME280;28564;53.346;-6.554;2023-03-21T05:46:59;99207.72;;;13.71;54.96
40372;BME280;28564;53.346;-6.554;2023-03-21T05:49:26;99206.51;;;13.22;55.22
40372;BME280;28564;53.346;-6.554;2023-03-21T05:51:54;99212.30;;;13.44;55.28
40372;BME280;28564;53.346;-6.554;2023-03-21T05:54:21;99222.89;;;13.47;55.29
40372;BME280;28564;53.346;-6.554;2023-03-21T05:56:48;99220.75;;;13.51;55.20
40372;BME280;28564;53.346;-6.554;2023-03-21T05:59:15;99213.14;;;13.46;55.39
40372;BME280;28564;53.346;-6.554;2023-03-21T06:01:42;99217.91;;;13.65;55.33
40372;BME280;28564;53.346;-6.554;2023-03-21T06:04:09;99227.12;;;13.33;55.77
40372;BME280;28564;53.346;-6.554;2023-03-21T06:06:37;99224.77;;;13.46;56.07
40372;BME280;28564;53.346;-6.554;2023-03-21T06:09:04;99228.60;;;13.14;56.49
40372;BME280;28564;53.346;-6.554;2023-03-21T06:11:33;99233.29;;;13.37;56.66
40372;BME280;28564;53.346;-6.554;2023-03-21T06:14:02;99236.99;;;13.31;57.13
40372;BME280;28564;53.346;-6.554;2023-03-21T06:16:29;99244.82;;;13.21;57.62
40372;BME280;28564;53.346;-6.554;2023-03-21T06:18:56;99251.57;;;13.15;57.87
40372;BME280;28564;53.346;-6.554;2023-03-21T06:21:23;99260.60;;;13.11;58.12
40372;BME280;28564;53.346;-6.554;2023-03-21T06:23:50;99258.00;;;13.05;58.38
40372;BME280;28564;53.346;-6.554;2023-03-21T06:26:17;99255.64;;;13.05;58.28
40372;BME280;28564;53.346;-6.554;2023-03-21T06:28:44;99259.52;;;12.97;58.23
40372;BME280;28564;53.346;-6.554;2023-03-21T06:31:12;99259.35;;;13.41;58.53
40372;BME280;28564;53.346;-6.554;2023-03-21T06:33:39;99257.72;;;12.91;58.22
40372;BME280;28564;53.346;-6.554;2023-03-21T06:36:07;99262.94;;;12.84;58.14
40372;BME280;28564;53.346;-6.554;2023-03-21T06:38:34;99268.75;;;12.77;58.19
40372;BME280;28564;53.346;-6.554;2023-03-21T06:41:01;99286.82;;;12.68;58.09
40372;BME280;28564;53.346;-6.554;2023-03-21T06:43:28;99281.43;;;12.61;58.08
40372;BME280;28564;53.346;-6.554;2023-03-21T06:45:56;99278.61;;;12.82;58.25
40372;BME280;28564;53.346;-6.554;2023-03-21T06:48:23;99283.82;;;12.55;58.39
40372;BME280;28564;53.346;-6.554;2023-03-21T06:50:51;99288.23;;;12.57;58.12
40372;BME280;28564;53.346;-6.554;2023-03-21T06:53:20;99292.47;;;12.82;57.97
40372;BME280;28564;53.346;-6.554;2023-03-21T06:55:48;99301.00;;;12.57;58.12
40372;BME280;28564;53.346;-6.554;2023-03-21T06:58:16;99308.92;;;12.60;58.05
40372;BME280;28564;53.346;-6.554;2023-03-21T07:00:43;99314.42;;;12.92;57.74
40372;BME280;28564;53.346;-6.554;2023-03-21T07:03:12;99323.56;;;12.72;57.78
40372;BME280;28564;53.346;-6.554;2023-03-21T07:05:40;99320.37;;;12.80;57.62
40372;BME280;28564;53.346;-6.554;2023-03-21T07:08:08;99316.31;;;12.87;57.49
40372;BME280;28564;53.346;-6.554;2023-03-21T07:10:37;99312.92;;;12.94;57.39
40372;BME280;28564;53.346;-6.554;2023-03-21T07:13:04;99319.31;;;13.03;57.13
40372;BME280;28564;53.346;-6.554;2023-03-21T07:15:32;99323.28;;;13.10;56.58
40372;BME280;28564;53.346;-6.554;2023-03-21T07:17:59;99325.52;;;13.10;56.28
40372;BME280;28564;53.346;-6.554;2023-03-21T07:20:26;99319.22;;;13.11;56.05
40372;BME280;28564;53.346;-6.554;2023-03-21T07:22:53;99327.62;;;13.16;55.93
40372;BME280;28564;53.346;-6.554;2023-03-21T07:25:20;99330.74;;;12.95;55.71
40372;BME280;28564;53.346;-6.554;2023-03-21T07:27:47;99337.61;;;13.17;55.74
40372;BME280;28564;53.346;-6.554;2023-03-21T07:30:15;99335.73;;;13.14;55.90
40372;BME280;28564;53.346;-6.554;2023-03-21T07:32:42;99332.32;;;13.16;55.94
40372;BME280;28564;53.346;-6.554;2023-03-21T07:35:16;99331.50;;;13.14;56.02
40372;BME280;28564;53.346;-6.554;2023-03-21T07:37:44;99332.46;;;13.14;56.04
40372;BME280;28564;53.346;-6.554;2023-03-21T07:40:11;99340.64;;;13.12;56.05
40372;BME280;28564;53.346;-6.554;2023-03-21T07:42:39;99346.64;;;12.88;56.11
40372;BME280;28564;53.346;-6.554;2023-03-21T07:45:09;99354.21;;;12.90;55.97
40372;BME280;28564;53.346;-6.554;2023-03-21T07:47:36;99365.24;;;13.13;55.95
40372;BME280;28564;53.346;-6.554;2023-03-21T07:50:03;99365.44;;;13.05;56.21
40372;BME280;28564;53.346;-6.554;2023-03-21T07:52:31;99375.11;;;12.99;56.63
40372;BME280;28564;53.346;-6.554;2023-03-21T07:54:58;99371.61;;;13.00;56.65
40372;BME280;28564;53.346;-6.554;2023-03-21T07:57:25;99379.77;;;13.01;56.42
40372;BME280;28564;53.346;-6.554;2023-03-21T07:59:52;99385.78;;;13.04;56.44
40372;BME280;28564;53.346;-6.554;2023-03-21T08:02:20;99396.64;;;13.02;55.93
40372;BME280;28564;53.346;-6.554;2023-03-21T08:04:47;99392.58;;;13.04;56.01
40372;BME280;28564;53.346;-6.554;2023-03-21T08:07:15;99392.41;;;13.06;56.00
40372;BME280;28564;53.346;-6.554;2023-03-21T08:09:42;99384.21;;;13.10;55.02
40372;BME280;28564;53.346;-6.554;2023-03-21T08:12:10;99376.88;;;13.09;54.84
40372;BME280;28564;53.346;-6.554;2023-03-21T08:14:37;99373.22;;;13.15;54.71
40372;BME280;28564;53.346;-6.554;2023-03-21T08:17:05;99372.69;;;13.17;54.53
40372;BME280;28564;53.346;-6.554;2023-03-21T08:19:32;99375.38;;;12.99;54.53
40372;BME280;28564;53.346;-6.554;2023-03-21T08:22:00;99372.32;;;13.27;54.18
40372;BME280;28564;53.346;-6.554;2023-03-21T08:24:27;99374.20;;;13.33;53.78
40372;BME280;28564;53.346;-6.554;2023-03-21T08:26:55;99373.37;;;13.41;53.37
40372;BME280;28564;53.346;-6.554;2023-03-21T08:29:22;99372.33;;;13.28;53.06
40372;BME280;28564;53.346;-6.554;2023-03-21T08:31:49;99374.62;;;13.60;53.18
40372;BME280;28564;53.346;-6.554;2023-03-21T08:34:16;99383.70;;;13.66;53.38
40372;BME280;28564;53.346;-6.554;2023-03-21T08:36:43;99383.78;;;13.49;52.49
40372;BME280;28564;53.346;-6.554;2023-03-21T08:39:11;99385.59;;;13.27;52.36
40372;BME280;28564;53.346;-6.554;2023-03-21T08:41:38;99379.86;;;13.72;52.48
40372;BME280;28564;53.346;-6.554;2023-03-21T08:44:05;99375.80;;;13.55;52.22
40372;BME280;28564;53.346;-6.554;2023-03-21T08:46:32;99363.48;;;13.84;51.82
40372;BME280;28564;53.346;-6.554;2023-03-21T08:48:59;99359.64;;;13.58;51.91
40372;BME280;28564;53.346;-6.554;2023-03-21T08:51:26;99359.83;;;13.66;52.34
40372;BME280;28564;53.346;-6.554;2023-03-21T08:53:54;99358.77;;;13.58;52.79
40372;BME280;28564;53.346;-6.554;2023-03-21T08:56:21;99367.79;;;13.29;53.12
40372;BME280;28564;53.346;-6.554;2023-03-21T08:58:48;99370.83;;;13.29;53.63
40372;BME280;28564;53.346;-6.554;2023-03-21T09:01:15;99376.68;;;13.50;53.94
40372;BME280;28564;53.346;-6.554;2023-03-21T09:03:42;99374.47;;;13.33;53.78
40372;BME280;28564;53.346;-6.554;2023-03-21T09:06:10;99377.85;;;13.17;53.46
40372;BME280;28564;53.346;-6.554;2023-03-21T09:08:37;99376.47;;;13.42;53.13
40372;BME280;28564;53.346;-6.554;2023-03-21T09:11:05;99380.16;;;13.65;52.82
40372;BME280;28564;53.346;-6.554;2023-03-21T09:13:33;99387.80;;;13.45;53.08
40372;BME280;28564;53.346;-6.554;2023-03-21T09:16:00;99384.60;;;13.49;52.63
40372;BME280;28564;53.346;-6.554;2023-03-21T09:18:28;99379.24;;;13.61;51.88
40372;BME280;28564;53.346;-6.554;2023-03-21T09:20:55;99374.93;;;13.73;52.35
40372;BME280;28564;53.346;-6.554;2023-03-21T09:23:22;99374.94;;;13.92;51.59
40372;BME280;28564;53.346;-6.554;2023-03-21T09:25:49;99373.36;;;13.88;50.98
40372;BME280;28564;53.346;-6.554;2023-03-21T09:28:16;99372.40;;;14.29;51.01
40372;BME280;28564;53.346;-6.554;2023-03-21T09:30:43;99365.47;;;13.97;50.61
40372;BME280;28564;53.346;-6.554;2023-03-21T09:33:11;99372.00;;;14.42;50.16
40372;BME280;28564;53.346;-6.554;2023-03-21T09:35:38;99365.89;;;14.31;49.61
40372;BME280;28564;53.346;-6.554;2023-03-21T09:38:05;99374.07;;;14.41;49.53
40372;BME280;28564;53.346;-6.554;2023-03-21T09:40:47;99375.73;;;14.37;48.89
40372;BME280;28564;53.346;-6.554;2023-03-21T09:43:29;99380.17;;;14.62;48.86
40372;BME280;28564;53.346;-6.554;2023-03-21T09:46:06;99375.82;;;14.79;48.53
40372;BME280;28564;53.346;-6.554;2023-03-21T09:48:43;99365.66;;;14.88;47.91
40372;BME280;28564;53.346;-6.554;2023-03-21T09:51:14;99367.71;;;15.09;47.41
40372;BME280;28564;53.346;-6.554;2023-03-21T09:53:44;99368.30;;;15.27;47.69
40372;BME280;28564;53.346;-6.554;2023-03-21T09:56:14;99378.41;;;15.09;46.98
40372;BME280;28564;53.346;-6.554;2023-03-21T09:58:44;99368.39;;;15.27;46.48
40372;BME280;28564;53.346;-6.554;2023-03-21T10:03:50;99361.82;;;15.08;46.45
40372;BME280;28564;53.346;-6.554;2023-03-21T10:06:17;99357.80;;;15.35;46.43
40372;BME280;28564;53.346;-6.554;2023-03-21T10:08:46;99359.96;;;15.19;46.26
40372;BME280;28564;53.346;-6.554;2023-03-21T10:11:18;99357.33;;;15.17;46.27
40372;BME280;28564;53.346;-6.554;2023-03-21T10:13:51;99362.15;;;15.31;46.74
40372;BME280;28564;53.346;-6.554;2023-03-21T10:16:26;99357.68;;;15.33;47.09
40372;BME280;28564;53.346;-6.554;2023-03-21T10:18:55;99355.62;;;15.33;46.59
40372;BME280;28564;53.346;-6.554;2023-03-21T10:21:24;99342.67;;;15.41;46.88
40372;BME280;28564;53.346;-6.554;2023-03-21T10:23:55;99342.85;;;15.66;47.03
40372;BME280;28564;53.346;-6.554;2023-03-21T10:26:26;99348.49;;;15.66;46.41
40372;BME280;28564;53.346;-6.554;2023-03-21T10:28:55;99344.40;;;16.27;46.35
40372;BME280;28564;53.346;-6.554;2023-03-21T10:31:25;99341.00;;;15.82;45.91
40372;BME280;28564;53.346;-6.554;2023-03-21T10:33:57;99354.86;;;15.84;46.11
40372;BME280;28564;53.346;-6.554;2023-03-21T10:36:29;99349.00;;;15.82;46.53
40372;BME280;28564;53.346;-6.554;2023-03-21T10:39:01;99346.66;;;15.77;47.01
40372;BME280;28564;53.346;-6.554;2023-03-21T10:41:29;99347.55;;;15.88;47.09
40372;BME280;28564;53.346;-6.554;2023-03-21T10:44:06;99351.65;;;15.85;47.06
40372;BME280;28564;53.346;-6.554;2023-03-21T10:46:33;99350.78;;;15.82;46.64
40372;BME280;28564;53.346;-6.554;2023-03-21T10:49:01;99361.32;;;15.97;46.50
40372;BME280;28564;53.346;-6.554;2023-03-21T10:51:31;99360.11;;;15.72;45.93
40372;BME280;28564;53.346;-6.554;2023-03-21T10:54:03;99362.81;;;15.61;45.36
40372;BME280;28564;53.346;-6.554;2023-03-21T10:56:35;99364.80;;;15.53;45.27
40372;BME280;28564;53.346;-6.554;2023-03-21T10:59:05;99366.89;;;15.51;45.42
40372;BME280;28564;53.346;-6.554;2023-03-21T11:01:35;99367.35;;;15.74;45.07
40372;BME280;28564;53.346;-6.554;2023-03-21T11:04:07;99366.40;;;15.75;44.93
40372;BME280;28564;53.346;-6.554;2023-03-21T11:06:38;99370.21;;;16.05;45.05
40372;BME280;28564;53.346;-6.554;2023-03-21T11:09:11;99363.79;;;15.53;44.68
40372;BME280;28564;53.346;-6.554;2023-03-21T11:11:47;99369.37;;;15.66;45.15
40372;BME280;28564;53.346;-6.554;2023-03-21T11:14:31;99369.70;;;15.50;45.67
40372;BME280;28564;53.346;-6.554;2023-03-21T11:16:59;99379.29;;;15.56;45.15
40372;BME280;28564;53.346;-6.554;2023-03-21T11:19:30;99379.05;;;15.50;45.95
40372;BME280;28564;53.346;-6.554;2023-03-21T11:21:58;99379.87;;;15.21;48.12
40372;BME280;28564;53.346;-6.554;2023-03-21T11:24:31;99377.05;;;15.07;48.86
40372;BME280;28564;53.346;-6.554;2023-03-21T11:26:59;99363.98;;;14.93;48.91
40372;BME280;28564;53.346;-6.554;2023-03-21T11:29:30;99368.60;;;15.18;49.14
40372;BME280;28564;53.346;-6.554;2023-03-21T11:32:01;99368.66;;;15.08;49.27
40372;BME280;28564;53.346;-6.554;2023-03-21T11:34:42;99370.56;;;15.15;48.61
40372;BME280;28564;53.346;-6.554;2023-03-21T11:37:19;99374.60;;;15.49;48.64
40372;BME280;28564;53.346;-6.554;2023-03-21T11:39:47;99375.37;;;15.56;49.18
40372;BME280;28564;53.346;-6.554;2023-03-21T11:42:26;99379.92;;;16.51;48.89
40372;BME280;28564;53.346;-6.554;2023-03-21T11:45:11;99373.77;;;16.64;45.86
40372;BME280;28564;53.346;-6.554;2023-03-21T11:47:38;99378.26;;;16.88;45.09
40372;BME280;28564;53.346;-6.554;2023-03-21T11:50:18;99369.96;;;17.04;41.08
40372;BME280;28564;53.346;-6.554;2023-03-21T11:52:54;99356.58;;;16.84;41.25
40372;BME280;28564;53.346;-6.554;2023-03-21T11:55:34;99356.69;;;17.09;41.90
40372;BME280;28564;53.346;-6.554;2023-03-21T11:58:16;99350.35;;;17.24;41.88
40372;BME280;28564;53.346;-6.554;2023-03-21T12:00:52;99356.57;;;17.00;40.56
40372;BME280;28564;53.346;-6.554;2023-03-21T12:03:44;99363.25;;;16.81;40.81
40372;BME280;28564;53.346;-6.554;2023-03-21T12:06:18;99375.01;;;16.90;40.87
40372;BME280;28564;53.346;-6.554;2023-03-21T12:08:58;99365.16;;;16.65;41.50
40372;BME280;28564;53.346;-6.554;2023-03-21T12:11:33;99357.77;;;16.78;41.65
40372;BME280;28564;53.346;-6.554;2023-03-21T12:14:06;99358.22;;;16.48;41.30
40372;BME280;28564;53.346;-6.554;2023-03-21T12:16:48;99358.13;;;17.00;40.85
40372;BME280;28564;53.346;-6.554;2023-03-21T12:19:38;99355.34;;;16.81;40.44
40372;BME280;28564;53.346;-6.554;2023-03-21T12:22:16;99372.46;;;16.68;40.71
40372;BME280;28564;53.346;-6.554;2023-03-21T12:24:53;99381.38;;;16.91;42.66
40372;BME280;28564;53.346;-6.554;2023-03-21T12:27:31;99372.25;;;16.55;43.36
40372;BME280;28564;53.346;-6.554;2023-03-21T12:30:12;99359.96;;;16.41;43.90
40372;BME280;28564;53.346;-6.554;2023-03-21T12:32:55;99363.47;;;16.53;43.63
40372;BME280;28564;53.346;-6.554;2023-03-21T12:35:39;99344.89;;;16.40;43.18
40372;BME280;28564;53.346;-6.554;2023-03-21T12:38:15;99343.24;;;16.98;42.62
40372;BME280;28564;53.346;-6.554;2023-03-21T12:40:55;99344.40;;;16.68;41.98
40372;BME280;28564;53.346;-6.554;2023-03-21T12:43:34;99349.52;;;16.41;42.46
40372;BME280;28564;53.346;-6.554;2023-03-21T12:46:10;99350.13;;;16.38;42.60
40372;BME280;28564;53.346;-6.554;2023-03-21T12:48:41;99340.24;;;16.45;42.92
40372;BME280;28564;53.346;-6.554;2023-03-21T12:51:12;99333.95;;;16.29;42.64
40372;BME280;28564;53.346;-6.554;2023-03-21T12:53:49;99331.71;;;16.18;42.22
40372;BME280;28564;53.346;-6.554;2023-03-21T12:56:21;99331.05;;;16.19;41.79
40372;BME280;28564;53.346;-6.554;2023-03-21T12:58:55;99333.20;;;16.26;41.24
40372;BME280;28564;53.346;-6.554;2023-03-21T13:01:24;99324.86;;;16.61;41.36
40372;BME280;28564;53.346;-6.554;2023-03-21T13:04:06;99319.32;;;16.71;41.78
40372;BME280;28564;53.346;-6.554;2023-03-21T13:06:35;99315.69;;;16.63;41.80
40372;BME280;28564;53.346;-6.554;2023-03-21T13:09:10;99310.47;;;16.72;41.80
40372;BME280;28564;53.346;-6.554;2023-03-21T13:11:41;99308.58;;;17.05;41.21